createdAt,value
2019-01-17T00:02:15.682Z,215.90
2019-01-17T00:04:45.591Z,220.70
2019-01-17T00:07:14.867Z,226.37
2019-01-17T00:09:44.380Z,220.33
2019-01-17T00:12:13.901Z,230.00
2019-01-17T00:14:43.724Z,225.90
2019-01-17T00:17:13.726Z,236.77
2019-01-17T00:19:43.326Z,227.57
2019-01-17T00:22:12.839Z,221.13
2019-01-17T00:24:42.126Z,225.37
2019-01-17T00:27:11.738Z,222.20
2019-01-17T00:29:41.253Z,217.80
2019-01-17T00:32:10.652Z,215.30
2019-01-17T00:34:40.609Z,208.27
2019-01-17T00:37:10.327Z,206.43
2019-01-17T00:39:39.962Z,217.17
2019-01-17T00:42:10.082Z,228.53
2019-01-17T00:44:40.602Z,221.47
2019-01-17T00:47:11.464Z,226.70
2019-01-17T00:49:41.054Z,236.13
2019-01-17T00:52:10.562Z,225.23
2019-01-17T00:54:40.381Z,219.97
2019-01-17T00:57:10.182Z,241.43
2019-01-17T00:59:40.179Z,253.40
2019-01-17T01:02:10.614Z,251.60
2019-01-17T01:04:41.994Z,259.03
2019-01-17T01:07:12.159Z,280.37
2019-01-17T01:09:43.237Z,297.83
2019-01-17T01:12:13.802Z,274.67
2019-01-17T01:14:43.897Z,256.73
2019-01-17T01:17:13.993Z,248.63
2019-01-17T01:19:43.593Z,257.17
2019-01-17T01:22:13.382Z,271.50
2019-01-17T01:24:43.383Z,265.93
2019-01-17T01:27:13.259Z,255.60
2019-01-17T01:29:42.843Z,239.60
2019-01-17T01:32:12.768Z,224.80
2019-01-17T01:34:42.800Z,223.53
2019-01-17T01:37:12.985Z,229.83
2019-01-17T01:39:43.525Z,231.50
2019-01-17T01:42:14.417Z,218.40
2019-01-17T01:44:44.303Z,213.60
2019-01-17T01:47:14.588Z,208.77
2019-01-17T01:49:44.689Z,207.07
2019-01-17T01:52:15.146Z,218.00
2019-01-17T01:54:45.465Z,252.73
2019-01-17T01:57:15.864Z,273.30
2019-01-17T01:59:46.270Z,261.20
2019-01-17T02:02:16.347Z,309.27
2019-01-17T02:04:46.745Z,234.73
2019-01-17T02:07:16.822Z,251.90
2019-01-17T02:09:46.737Z,248.00
2019-01-17T02:12:16.981Z,235.83
2019-01-17T02:14:46.856Z,235.30
2019-01-17T02:17:17.173Z,248.27
2019-01-17T02:19:47.391Z,240.90
2019-01-17T02:22:17.703Z,239.63
2019-01-17T02:24:47.724Z,238.87
2019-01-17T02:27:17.834Z,246.20
2019-01-17T02:29:48.821Z,240.37
2019-01-17T02:32:19.228Z,235.63
2019-01-17T02:34:49.749Z,211.87
2019-01-17T02:37:20.337Z,217.23
2019-01-17T02:39:49.978Z,215.27
2019-01-17T02:42:20.445Z,218.07
2019-01-17T02:44:50.294Z,219.93
2019-01-17T02:47:20.741Z,213.43
2019-01-17T02:49:51.135Z,215.77
2019-01-17T02:52:21.194Z,200.20
2019-01-17T02:54:51.207Z,192.53
2019-01-17T02:57:21.304Z,196.20
2019-01-17T02:59:52.024Z,205.23
2019-01-17T03:02:21.554Z,195.83
2019-01-17T03:04:52.019Z,214.77
2019-01-17T03:07:22.202Z,210.87
2019-01-17T03:09:52.243Z,193.97
2019-01-17T03:12:22.242Z,201.13
2019-01-17T03:14:52.375Z,204.73
2019-01-17T03:17:22.389Z,214.40
2019-01-17T03:19:52.561Z,207.37
2019-01-17T03:22:22.738Z,205.93
2019-01-17T03:24:53.034Z,211.73
2019-01-17T03:27:22.957Z,223.77
2019-01-17T03:29:52.655Z,216.63
2019-01-17T03:32:22.305Z,220.13
2019-01-17T03:34:52.597Z,213.30
2019-01-17T03:37:22.606Z,222.70
2019-01-17T03:39:52.577Z,229.30
2019-01-17T03:42:22.890Z,222.13
2019-01-17T03:44:52.821Z,210.20
2019-01-17T03:47:22.970Z,213.73
2019-01-17T03:49:53.134Z,213.50
2019-01-17T03:52:23.271Z,226.47
2019-01-17T03:54:54.062Z,232.10
2019-01-17T03:57:23.685Z,236.83
2019-01-17T03:59:54.064Z,229.87
2019-01-17T04:02:24.332Z,220.97
2019-01-17T04:04:54.748Z,230.33
2019-01-17T04:07:24.385Z,239.33
2019-01-17T04:09:54.678Z,222.40
2019-01-17T04:12:24.474Z,232.63
2019-01-17T04:14:54.597Z,240.83
2019-01-17T04:17:24.625Z,250.97
2019-01-17T04:19:54.792Z,233.77
2019-01-17T04:22:24.752Z,223.13
2019-01-17T04:24:57.502Z,227.03
2019-01-17T04:27:25.193Z,256.00
2019-01-17T04:29:55.327Z,235.30
2019-01-17T04:32:25.632Z,226.37
2019-01-17T04:34:55.688Z,235.70
2019-01-17T04:37:25.551Z,243.00
2019-01-17T04:39:55.920Z,233.80
2019-01-17T04:42:25.681Z,226.90
2019-01-17T04:44:55.683Z,245.40
2019-01-17T04:47:25.787Z,255.47
2019-01-17T04:49:56.274Z,255.47
2019-01-17T04:52:26.585Z,261.67
2019-01-17T04:54:56.663Z,259.80
2019-01-17T04:57:26.550Z,278.70
2019-01-17T04:59:57.162Z,243.70
2019-01-17T05:02:27.521Z,238.17
2019-01-17T05:04:57.178Z,248.33
2019-01-17T05:07:27.705Z,249.70
2019-01-17T05:09:57.915Z,278.63
2019-01-17T05:12:28.193Z,314.13
2019-01-17T05:14:58.266Z,270.77
2019-01-17T05:17:28.426Z,275.03
2019-01-17T05:19:58.530Z,267.67
2019-01-17T05:22:28.527Z,278.47
2019-01-17T05:24:58.621Z,301.90
2019-01-17T05:27:28.551Z,253.20
2019-01-17T05:29:58.838Z,255.53
2019-01-17T05:32:29.137Z,272.20
2019-01-17T05:34:59.237Z,252.17
2019-01-17T05:37:29.032Z,259.77
2019-01-17T05:39:59.074Z,254.17
2019-01-17T05:42:29.074Z,246.10
2019-01-17T05:44:59.525Z,250.20
2019-01-17T05:47:29.736Z,236.77
2019-01-17T05:50:00.200Z,237.13
2019-01-17T05:52:30.463Z,226.33
2019-01-17T05:55:00.583Z,205.57
2019-01-17T05:57:30.621Z,179.70
2019-01-17T06:00:00.818Z,182.40
2019-01-17T06:02:30.628Z,186.70
2019-01-17T06:05:00.826Z,168.50
2019-01-17T06:07:30.975Z,168.87
2019-01-17T06:10:00.800Z,330.83
2019-01-17T06:12:31.113Z,176.47
2019-01-17T06:15:01.028Z,175.00
2019-01-17T06:17:30.898Z,173.73
2019-01-17T06:20:00.737Z,163.57
2019-01-17T06:22:30.751Z,165.47
2019-01-17T06:25:00.380Z,147.17
2019-01-17T06:27:30.313Z,141.77
2019-01-17T06:30:00.335Z,137.40
2019-01-17T06:32:30.734Z,141.07
2019-01-17T06:35:01.140Z,137.13
2019-01-17T06:37:31.205Z,123.60
2019-01-17T06:40:01.015Z,129.90
2019-01-17T06:42:30.597Z,128.07
2019-01-17T06:45:00.966Z,130.80
2019-01-17T06:47:30.885Z,126.00
2019-01-17T06:50:01.276Z,109.97
2019-01-17T06:52:31.275Z,110.37
2019-01-17T06:55:01.766Z,100.47
2019-01-17T06:57:32.123Z,105.17
2019-01-17T07:00:02.243Z,115.53
2019-01-17T07:02:31.928Z,113.67
2019-01-17T07:05:02.077Z,112.50
2019-01-17T07:07:32.087Z,119.07
2019-01-17T07:10:01.927Z,125.67
2019-01-17T07:12:32.018Z,127.47
2019-01-17T07:15:02.424Z,131.17
2019-01-17T07:17:31.957Z,129.50
2019-01-17T07:20:02.021Z,125.13
2019-01-17T07:22:31.880Z,130.80
2019-01-17T07:25:02.154Z,127.00
2019-01-17T07:27:32.152Z,115.13
2019-01-17T07:30:02.135Z,125.63
2019-01-17T07:32:32.239Z,110.00
2019-01-17T07:35:02.084Z,123.20
2019-01-17T07:37:32.639Z,129.10
2019-01-17T07:40:02.923Z,116.17
2019-01-17T07:42:32.995Z,111.23
2019-01-17T07:45:02.743Z,123.87
2019-01-17T07:47:32.826Z,117.67
2019-01-17T07:50:02.895Z,116.50
2019-01-17T07:52:33.002Z,116.43
2019-01-17T07:55:03.043Z,115.97
2019-01-17T07:57:32.800Z,109.07
2019-01-17T08:00:02.595Z,103.93
2019-01-17T08:02:32.082Z,103.70
2019-01-17T08:05:02.449Z,109.23
2019-01-17T08:07:32.497Z,103.77
2019-01-17T08:10:02.740Z,100.03
2019-01-17T08:12:33.031Z,93.47
2019-01-17T08:15:03.364Z,94.03
2019-01-17T08:17:33.456Z,132.43
2019-01-17T08:20:03.606Z,87.07
2019-01-17T08:22:33.604Z,84.93
2019-01-17T08:25:03.840Z,80.33
2019-01-17T08:27:34.642Z,78.00
2019-01-17T08:30:04.893Z,84.80
2019-01-17T08:32:34.733Z,76.90
2019-01-17T08:35:04.983Z,81.00
2019-01-17T08:37:34.503Z,81.67
2019-01-17T08:40:04.196Z,74.00
2019-01-17T08:42:33.697Z,75.93
2019-01-17T08:45:03.767Z,82.87
2019-01-17T08:47:33.639Z,76.80
2019-01-17T08:50:03.362Z,66.80
2019-01-17T08:52:33.351Z,74.07
2019-01-17T08:55:03.392Z,77.63
2019-01-17T08:57:33.561Z,76.77
2019-01-17T09:00:03.282Z,73.07
2019-01-17T09:02:33.402Z,79.47
2019-01-17T09:05:03.698Z,65.47
2019-01-17T09:07:33.762Z,67.23
2019-01-17T09:10:03.323Z,67.63
2019-01-17T09:12:33.126Z,65.07
2019-01-17T09:15:03.047Z,71.87
2019-01-17T09:17:33.194Z,68.13
2019-01-17T09:20:03.280Z,74.13
2019-01-17T09:22:33.399Z,63.93
2019-01-17T09:25:03.410Z,66.50
2019-01-17T09:27:33.551Z,64.73
2019-01-17T09:30:03.873Z,87.43
2019-01-17T09:32:33.649Z,74.77
2019-01-17T09:35:04.119Z,81.00
2019-01-17T09:37:34.431Z,74.87
2019-01-17T09:40:04.637Z,73.07
2019-01-17T09:42:34.352Z,69.80
2019-01-17T09:45:04.334Z,70.43
2019-01-17T09:47:34.182Z,67.83
2019-01-17T09:50:04.624Z,61.17
2019-01-17T09:52:34.465Z,66.17
2019-01-17T09:55:04.756Z,68.57
2019-01-17T09:57:34.875Z,66.87
2019-01-17T10:00:05.758Z,75.40
2019-01-17T10:02:36.270Z,68.50
2019-01-17T10:05:06.362Z,64.70
2019-01-17T10:07:36.666Z,64.10
2019-01-17T10:10:06.763Z,62.53
2019-01-17T10:12:36.820Z,68.80
2019-01-17T10:15:07.121Z,59.97
2019-01-17T10:17:37.570Z,62.23
2019-01-17T10:20:07.368Z,67.33
2019-01-17T10:22:37.788Z,66.77
2019-01-17T10:25:08.221Z,60.93
2019-01-17T10:27:38.258Z,73.13
2019-01-17T10:30:08.052Z,69.77
2019-01-17T10:32:37.990Z,67.03
2019-01-17T10:35:08.424Z,62.30
2019-01-17T10:37:38.882Z,64.10
2019-01-17T10:40:09.045Z,63.40
2019-01-17T10:42:39.397Z,63.17
2019-01-17T10:45:09.148Z,68.27
2019-01-17T10:47:39.229Z,61.60
2019-01-17T10:50:08.984Z,69.93
2019-01-17T10:52:39.043Z,61.77
2019-01-17T10:55:09.282Z,63.77
2019-01-17T10:57:39.585Z,66.50
2019-01-17T11:00:09.594Z,72.93
2019-01-17T11:02:39.703Z,69.03
2019-01-17T11:05:09.723Z,66.83
2019-01-17T11:07:39.831Z,74.07
2019-01-17T11:10:09.599Z,73.90
2019-01-17T11:12:39.773Z,80.93
2019-01-17T11:15:09.486Z,85.67
2019-01-17T11:17:40.165Z,85.43
2019-01-17T11:20:09.715Z,87.13
2019-01-17T11:22:40.149Z,87.60
2019-01-17T11:25:10.886Z,95.70
2019-01-17T11:27:41.824Z,98.70
2019-01-17T11:30:11.935Z,90.70
2019-01-17T11:32:41.956Z,85.27
2019-01-17T11:35:12.349Z,78.57
2019-01-17T11:37:42.393Z,78.73
2019-01-17T11:40:12.477Z,76.30
2019-01-17T11:42:42.554Z,81.90
2019-01-17T11:45:12.674Z,82.03
2019-01-17T11:47:42.773Z,79.63
2019-01-17T11:50:12.808Z,76.17
2019-01-17T11:52:42.483Z,75.70
2019-01-17T11:55:12.313Z,81.40
2019-01-17T11:57:42.517Z,89.33
2019-01-17T12:00:12.799Z,92.40
2019-01-17T12:02:42.882Z,89.73
2019-01-17T12:05:12.995Z,111.73
2019-01-17T12:07:43.355Z,89.00
2019-01-17T12:10:13.564Z,87.37
2019-01-17T12:12:43.676Z,104.93
2019-01-17T12:15:14.017Z,96.03
2019-01-17T12:17:44.101Z,112.33
2019-01-17T12:20:14.097Z,100.17
2019-01-17T12:22:44.256Z,105.80
2019-01-17T12:25:14.281Z,123.67
2019-01-17T12:27:44.303Z,117.57
2019-01-17T12:30:14.203Z,385.97
2019-01-17T12:32:44.075Z,236.93
2019-01-17T12:35:13.684Z,217.47
2019-01-17T12:37:43.969Z,208.20
2019-01-17T12:40:13.842Z,150.10
2019-01-17T12:42:43.689Z,126.37
2019-01-17T12:45:14.302Z,126.30
2019-01-17T12:47:44.270Z,125.83
2019-01-17T12:50:14.253Z,113.10
2019-01-17T12:52:44.568Z,119.53
2019-01-17T12:55:14.662Z,140.83
2019-01-17T12:57:44.816Z,140.47
2019-01-17T13:00:15.202Z,149.90
2019-01-17T13:02:45.763Z,136.27
2019-01-17T13:05:15.706Z,125.20
2019-01-17T13:07:46.033Z,137.43
2019-01-17T13:10:15.682Z,143.50
2019-01-17T13:12:45.803Z,157.63
2019-01-17T13:15:16.222Z,137.70
2019-01-17T13:17:46.298Z,132.87
2019-01-17T13:20:16.791Z,137.30
2019-01-17T13:22:47.391Z,127.23
2019-01-17T13:25:17.796Z,137.97
2019-01-17T13:27:47.533Z,141.80
2019-01-17T13:30:18.076Z,141.43
2019-01-17T13:32:48.004Z,133.57
2019-01-17T13:35:18.091Z,143.90
2019-01-17T13:37:48.489Z,148.67
2019-01-17T13:40:19.016Z,160.37
2019-01-17T13:42:48.996Z,164.23
2019-01-17T13:45:19.084Z,156.57
2019-01-17T13:47:48.807Z,151.10
2019-01-17T13:50:18.623Z,175.23
2019-01-17T13:52:48.664Z,166.10
2019-01-17T13:55:18.904Z,175.80
2019-01-17T13:57:49.778Z,167.83
2019-01-17T14:00:20.321Z,167.50
2019-01-17T14:02:50.476Z,182.73
2019-01-17T14:05:20.438Z,191.40
2019-01-17T14:07:50.425Z,191.63
2019-01-17T14:10:21.153Z,191.20
2019-01-17T14:12:51.317Z,180.63
2019-01-17T14:15:20.721Z,167.70
2019-01-17T14:17:50.784Z,202.37
2019-01-17T14:20:20.862Z,199.97
2019-01-17T14:22:51.137Z,193.67
2019-01-17T14:25:21.227Z,186.20
2019-01-17T14:27:50.942Z,177.93
2019-01-17T14:30:21.151Z,189.37
2019-01-17T14:32:50.767Z,198.50
2019-01-17T14:35:20.996Z,172.97
2019-01-17T14:37:50.813Z,177.07
2019-01-17T14:40:21.243Z,166.50
2019-01-17T14:42:50.813Z,166.80
2019-01-17T14:45:20.872Z,173.60
2019-01-17T14:47:51.383Z,167.37
2019-01-17T14:50:21.498Z,169.60
2019-01-17T14:52:51.433Z,167.93
2019-01-17T14:55:21.500Z,175.47
2019-01-17T14:57:51.440Z,180.53
2019-01-17T15:00:22.077Z,183.07
2019-01-17T15:02:52.493Z,178.30
2019-01-17T15:05:22.971Z,196.57
2019-01-17T15:07:52.964Z,205.03
2019-01-17T15:10:23.139Z,200.50
2019-01-17T15:12:53.171Z,202.23
2019-01-17T15:15:23.521Z,188.80
2019-01-17T15:17:53.612Z,185.97
2019-01-17T15:20:24.011Z,191.93
2019-01-17T15:22:54.441Z,182.20
2019-01-17T15:25:24.572Z,189.60
2019-01-17T15:27:54.730Z,191.43
2019-01-17T15:30:25.322Z,180.87
2019-01-17T15:32:55.362Z,189.40
2019-01-17T15:35:25.456Z,176.03
2019-01-17T15:37:55.441Z,175.47
2019-01-17T15:40:25.357Z,189.43
2019-01-17T15:42:55.360Z,175.57
2019-01-17T15:45:25.486Z,199.87
2019-01-17T15:47:55.928Z,186.97
2019-01-17T15:50:25.888Z,198.97
2019-01-17T15:52:56.036Z,216.07
2019-01-17T15:55:26.446Z,222.10
2019-01-17T15:57:56.626Z,214.27
2019-01-17T16:00:27.050Z,205.60
2019-01-17T16:02:57.120Z,215.40
2019-01-17T16:05:27.264Z,224.33
2019-01-17T16:07:57.746Z,221.97
2019-01-17T16:10:27.786Z,219.27
2019-01-17T16:12:57.900Z,219.00
2019-01-17T16:15:28.010Z,221.87
2019-01-17T16:17:58.032Z,228.93
2019-01-17T16:20:27.779Z,237.23
2019-01-17T16:22:57.952Z,238.90
2019-01-17T16:25:27.639Z,225.70
2019-01-17T16:27:57.691Z,225.20
2019-01-17T16:30:27.750Z,233.17
2019-01-17T16:32:57.749Z,238.10
2019-01-17T16:35:27.854Z,227.13
2019-01-17T16:37:58.212Z,224.53
2019-01-17T16:40:28.691Z,230.63
2019-01-17T16:42:58.855Z,231.67
2019-01-17T16:45:35.184Z,227.80
2019-01-17T16:47:59.542Z,234.53
2019-01-17T16:50:29.634Z,242.20
2019-01-17T16:52:59.827Z,231.37
2019-01-17T16:55:30.061Z,221.53
2019-01-17T16:57:59.959Z,222.27
2019-01-17T17:00:30.058Z,230.33
2019-01-17T17:02:59.868Z,249.43
2019-01-17T17:05:30.193Z,233.03
2019-01-17T17:08:00.321Z,230.57
2019-01-17T17:10:30.222Z,243.20
2019-01-17T17:12:59.990Z,240.17
2019-01-17T17:15:30.389Z,235.23
2019-01-17T17:18:00.427Z,214.33
2019-01-17T17:20:30.616Z,221.87
2019-01-17T17:23:00.850Z,215.70
2019-01-17T17:25:31.162Z,221.20
2019-01-17T17:28:01.277Z,219.40
2019-01-17T17:30:31.207Z,214.67
2019-01-17T17:33:01.411Z,216.87
2019-01-17T17:35:32.104Z,221.17
2019-01-17T17:38:02.313Z,221.20
2019-01-17T17:40:32.709Z,216.60
2019-01-17T17:43:03.116Z,225.27
2019-01-17T17:45:33.406Z,228.60
2019-01-17T17:48:03.543Z,227.33
2019-01-17T17:50:33.777Z,235.33
2019-01-17T17:53:04.022Z,235.20
2019-01-17T17:55:34.467Z,233.43
2019-01-17T17:58:04.539Z,244.67
2019-01-17T18:00:35.068Z,250.07
2019-01-17T18:03:05.314Z,240.53
2019-01-17T18:05:35.472Z,239.90
2019-01-17T18:08:05.798Z,239.23
2019-01-17T18:10:35.870Z,229.97
2019-01-17T18:13:05.634Z,223.80
2019-01-17T18:15:35.867Z,223.97
2019-01-17T18:18:06.433Z,221.03
2019-01-17T18:20:35.991Z,213.13
2019-01-17T18:23:06.303Z,211.57
2019-01-17T18:25:36.699Z,219.00
2019-01-17T18:28:08.854Z,216.20
2019-01-17T18:30:37.888Z,219.10
2019-01-17T18:33:07.861Z,230.00
2019-01-17T18:35:38.066Z,224.90
2019-01-17T18:38:08.144Z,239.97
2019-01-17T18:40:38.423Z,234.00
2019-01-17T18:43:08.859Z,217.23
2019-01-17T18:45:39.232Z,236.93
2019-01-17T18:48:09.753Z,234.83
2019-01-17T18:50:40.345Z,224.60
2019-01-17T18:53:10.587Z,233.00
2019-01-17T18:55:40.838Z,229.43
2019-01-17T18:58:15.513Z,225.63
2019-01-17T19:00:41.988Z,227.27
2019-01-17T19:03:12.386Z,224.10
2019-01-17T19:05:42.519Z,230.83
2019-01-17T19:08:12.865Z,230.03
2019-01-17T19:10:43.067Z,226.97
2019-01-17T19:13:13.319Z,221.40
2019-01-17T19:15:43.430Z,221.13
2019-01-17T19:18:13.502Z,228.47
2019-01-17T19:20:43.625Z,233.50
2019-01-17T19:23:13.782Z,229.83
2019-01-17T19:25:44.513Z,229.63
2019-01-17T19:28:15.068Z,222.40
2019-01-17T19:30:45.040Z,224.37
2019-01-17T19:33:15.588Z,219.27
2019-01-17T19:35:45.612Z,222.17
2019-01-17T19:38:15.708Z,226.93
2019-01-17T19:40:45.831Z,223.80
2019-01-17T19:43:15.852Z,226.70
2019-01-17T19:45:45.947Z,224.37
2019-01-17T19:48:16.175Z,234.73
2019-01-17T19:50:46.557Z,232.40
2019-01-17T19:53:17.225Z,232.00
2019-01-17T19:55:47.273Z,229.43
2019-01-17T19:58:17.549Z,232.17
2019-01-17T20:00:48.158Z,232.13
2019-01-17T20:03:18.757Z,240.43
2019-01-17T20:05:48.986Z,240.10
2019-01-17T20:08:19.235Z,241.50
2019-01-17T20:10:49.425Z,233.57
2019-01-17T20:13:19.624Z,235.13
2019-01-17T20:15:50.093Z,248.77
2019-01-17T20:18:20.192Z,250.80
2019-01-17T20:20:50.273Z,238.33
2019-01-17T20:23:20.663Z,238.87
2019-01-17T20:25:50.625Z,240.57
2019-01-17T20:28:20.756Z,250.67
2019-01-17T20:30:50.893Z,262.80
2019-01-17T20:33:20.822Z,246.83
2019-01-17T20:35:51.419Z,253.63
2019-01-17T20:38:21.470Z,235.70
2019-01-17T20:40:57.957Z,240.40
2019-01-17T20:43:22.414Z,239.23
2019-01-17T20:45:52.673Z,262.03
2019-01-17T20:48:22.830Z,265.87
2019-01-17T20:50:52.742Z,256.53
2019-01-17T20:53:22.465Z,256.93
2019-01-17T20:55:52.151Z,247.93
2019-01-17T20:58:21.464Z,248.87
2019-01-17T21:00:51.463Z,247.43
2019-01-17T21:03:20.867Z,237.80
2019-01-17T21:05:50.799Z,236.43
2019-01-17T21:08:20.631Z,234.40
2019-01-17T21:10:50.504Z,228.10
2019-01-17T21:13:20.995Z,225.53
2019-01-17T21:15:51.071Z,228.67
2019-01-17T21:18:21.473Z,223.83
2019-01-17T21:20:51.543Z,225.17
2019-01-17T21:23:21.630Z,222.53
2019-01-17T21:25:51.748Z,223.43
2019-01-17T21:28:21.884Z,230.63
2019-01-17T21:30:51.897Z,234.50
2019-01-17T21:33:22.235Z,233.00
2019-01-17T21:35:52.467Z,250.97
2019-01-17T21:38:22.748Z,238.83
2019-01-17T21:40:53.143Z,246.10
2019-01-17T21:43:23.313Z,243.47
2019-01-17T21:45:53.452Z,253.33
2019-01-17T21:48:23.700Z,253.27
2019-01-17T21:50:53.867Z,255.77
2019-01-17T21:53:24.188Z,248.67
2019-01-17T21:55:54.273Z,254.17
2019-01-17T21:58:24.746Z,247.20
2019-01-17T22:00:54.742Z,255.43
2019-01-17T22:03:24.834Z,243.80
2019-01-17T22:05:54.591Z,254.47
2019-01-17T22:08:24.993Z,242.47
2019-01-17T22:10:55.421Z,246.43
2019-01-17T22:13:25.786Z,241.13
2019-01-17T22:15:56.272Z,238.93
2019-01-17T22:18:26.262Z,253.03
2019-01-17T22:20:56.321Z,243.13
2019-01-17T22:23:26.745Z,244.67
2019-01-17T22:25:57.186Z,226.27
2019-01-17T22:28:27.550Z,222.43
2019-01-17T22:30:58.264Z,224.00
2019-01-17T22:33:28.346Z,231.80
2019-01-17T22:35:58.746Z,240.63
2019-01-17T22:38:29.146Z,246.90
2019-01-17T22:40:59.229Z,233.47
2019-01-17T22:43:28.982Z,244.53
2019-01-17T22:45:59.403Z,241.77
2019-01-17T22:48:29.591Z,243.20
2019-01-17T22:50:59.591Z,239.93
2019-01-17T22:53:29.382Z,233.43
2019-01-17T22:55:59.062Z,237.47
2019-01-17T22:58:29.536Z,233.37
2019-01-17T23:00:59.631Z,246.50
2019-01-17T23:03:29.344Z,236.67
2019-01-17T23:05:59.392Z,254.23
2019-01-17T23:08:29.307Z,252.27
2019-01-17T23:10:59.871Z,240.73
2019-01-17T23:13:29.962Z,242.27
2019-01-17T23:16:00.144Z,236.33
2019-01-17T23:18:29.874Z,246.63
2019-01-17T23:20:59.677Z,233.80
2019-01-17T23:23:29.794Z,235.43
2019-01-17T23:25:59.710Z,228.17
2019-01-17T23:28:30.085Z,241.73
2019-01-17T23:31:00.185Z,239.43
2019-01-17T23:33:30.074Z,246.97
2019-01-17T23:36:00.348Z,230.03
2019-01-17T23:38:30.036Z,233.20
2019-01-17T23:41:00.217Z,270.20
2019-01-17T23:43:30.303Z,268.33
2019-01-17T23:46:00.273Z,254.53
2019-01-17T23:48:31.186Z,259.83
2019-01-17T23:51:01.129Z,272.60
2019-01-17T23:53:30.864Z,284.27
2019-01-17T23:56:00.908Z,288.83
2019-01-17T23:58:30.751Z,281.63
